sensor_id;sensor_type;location;lat;lon;timestamp;temperature;humidity
60965;DHT22;46834;51.100;6.886;2022-08-21T00:00:07;19.90;44.60
60965;DHT22;46834;51.100;6.886;2022-08-21T00:02:36;19.90;44.90
60965;DHT22;46834;51.100;6.886;2022-08-21T00:05:03;19.80;44.60
60965;DHT22;46834;51.100;6.886;2022-08-21T00:07:29;19.80;44.70
60965;DHT22;46834;51.100;6.886;2022-08-21T00:09:55;19.80;44.90
60965;DHT22;46834;51.100;6.886;2022-08-21T00:12:21;19.70;44.90
60965;DHT22;46834;51.100;6.886;2022-08-21T00:14:48;19.70;45.00
60965;DHT22;46834;51.100;6.886;2022-08-21T00:17:13;19.60;44.90
60965;DHT22;46834;51.100;6.886;2022-08-21T00:19:39;19.60;45.00
60965;DHT22;46834;51.100;6.886;2022-08-21T00:22:05;19.60;45.00
60965;DHT22;46834;51.100;6.886;2022-08-21T00:24:31;19.60;45.10
60965;DHT22;46834;51.100;6.886;2022-08-21T00:26:56;19.60;45.10
60965;DHT22;46834;51.100;6.886;2022-08-21T00:29:22;19.70;45.30
60965;DHT22;46834;51.100;6.886;2022-08-21T00:31:48;19.50;45.20
60965;DHT22;46834;51.100;6.886;2022-08-21T00:34:14;19.50;45.30
60965;DHT22;46834;51.100;6.886;2022-08-21T00:36:40;19.50;45.30
60965;DHT22;46834;51.100;6.886;2022-08-21T00:39:07;19.50;45.30
60965;DHT22;46834;51.100;6.886;2022-08-21T00:41:40;19.50;45.40
60965;DHT22;46834;51.100;6.886;2022-08-21T00:44:09;19.40;45.50
60965;DHT22;46834;51.100;6.886;2022-08-21T00:46:37;19.40;45.50
60965;DHT22;46834;51.100;6.886;2022-08-21T00:49:05;19.40;45.50
60965;DHT22;46834;51.100;6.886;2022-08-21T00:51:39;19.30;45.50
60965;DHT22;46834;51.100;6.886;2022-08-21T00:54:13;19.40;46.00
60965;DHT22;46834;51.100;6.886;2022-08-21T00:56:40;19.30;45.80
60965;DHT22;46834;51.100;6.886;2022-08-21T00:59:07;19.30;45.80
60965;DHT22;46834;51.100;6.886;2022-08-21T01:01:33;19.20;45.80
60965;DHT22;46834;51.100;6.886;2022-08-21T01:03:59;19.30;46.00
60965;DHT22;46834;51.100;6.886;2022-08-21T01:06:25;19.20;46.00
60965;DHT22;46834;51.100;6.886;2022-08-21T01:08:51;19.20;46.10
60965;DHT22;46834;51.100;6.886;2022-08-21T01:11:17;19.20;46.20
60965;DHT22;46834;51.100;6.886;2022-08-21T01:13:43;19.20;46.30
60965;DHT22;46834;51.100;6.886;2022-08-21T01:16:13;19.10;46.30
60965;DHT22;46834;51.100;6.886;2022-08-21T01:18:43;19.10;46.30
60965;DHT22;46834;51.100;6.886;2022-08-21T01:21:13;19.10;46.40
60965;DHT22;46834;51.100;6.886;2022-08-21T01:23:48;19.10;46.60
60965;DHT22;46834;51.100;6.886;2022-08-21T01:26:18;19.10;46.90
60965;DHT22;46834;51.100;6.886;2022-08-21T01:28:58;19.10;46.70
60965;DHT22;46834;51.100;6.886;2022-08-21T01:31:27;19.00;47.00
60965;DHT22;46834;51.100;6.886;2022-08-21T01:33:55;19.10;46.70
60965;DHT22;46834;51.100;6.886;2022-08-21T01:36:21;18.90;46.60
60965;DHT22;46834;51.100;6.886;2022-08-21T01:38:47;18.90;46.70
60965;DHT22;46834;51.100;6.886;2022-08-21T01:41:14;18.90;46.80
60965;DHT22;46834;51.100;6.886;2022-08-21T01:43:42;18.80;46.80
60965;DHT22;46834;51.100;6.886;2022-08-21T01:46:09;18.80;47.50
60965;DHT22;46834;51.100;6.886;2022-08-21T01:48:35;18.80;47.00
60965;DHT22;46834;51.100;6.886;2022-08-21T01:51:02;18.80;47.00
60965;DHT22;46834;51.100;6.886;2022-08-21T01:53:28;18.80;47.10
60965;DHT22;46834;51.100;6.886;2022-08-21T01:55:54;18.80;47.10
60965;DHT22;46834;51.100;6.886;2022-08-21T01:58:20;18.70;47.10
60965;DHT22;46834;51.100;6.886;2022-08-21T02:00:46;18.70;47.10
60965;DHT22;46834;51.100;6.886;2022-08-21T02:03:11;18.60;47.10
60965;DHT22;46834;51.100;6.886;2022-08-21T02:05:37;18.60;47.10
60965;DHT22;46834;51.100;6.886;2022-08-21T02:08:06;18.60;47.30
60965;DHT22;46834;51.100;6.886;2022-08-21T02:10:32;18.60;47.50
60965;DHT22;46834;51.100;6.886;2022-08-21T02:12:58;18.60;47.40
60965;DHT22;46834;51.100;6.886;2022-08-21T02:15:26;18.50;47.40
60965;DHT22;46834;51.100;6.886;2022-08-21T02:18:00;18.50;47.50
60965;DHT22;46834;51.100;6.886;2022-08-21T02:20:30;18.50;47.90
60965;DHT22;46834;51.100;6.886;2022-08-21T02:23:02;18.40;47.70
60965;DHT22;46834;51.100;6.886;2022-08-21T02:25:30;18.40;47.50
60965;DHT22;46834;51.100;6.886;2022-08-21T02:27:58;18.40;47.60
60965;DHT22;46834;51.100;6.886;2022-08-21T02:30:28;18.30;47.50
60965;DHT22;46834;51.100;6.886;2022-08-21T02:32:59;18.30;47.60
60965;DHT22;46834;51.100;6.886;2022-08-21T02:35:27;18.30;47.50
60965;DHT22;46834;51.100;6.886;2022-08-21T02:37:56;18.30;47.60
60965;DHT22;46834;51.100;6.886;2022-08-21T02:40:27;18.30;47.60
60965;DHT22;46834;51.100;6.886;2022-08-21T02:42:59;18.30;47.60
60965;DHT22;46834;51.100;6.886;2022-08-21T02:45:25;18.20;47.50
60965;DHT22;46834;51.100;6.886;2022-08-21T02:48:04;18.20;47.50
60965;DHT22;46834;51.100;6.886;2022-08-21T02:50:35;18.20;47.60
60965;DHT22;46834;51.100;6.886;2022-08-21T02:53:07;18.20;47.60
60965;DHT22;46834;51.100;6.886;2022-08-21T02:55:37;18.10;47.40
60965;DHT22;46834;51.100;6.886;2022-08-21T02:58:05;18.10;47.50
60965;DHT22;46834;51.100;6.886;2022-08-21T03:00:33;18.10;47.50
60965;DHT22;46834;51.100;6.886;2022-08-21T03:03:00;18.00;47.50
60965;DHT22;46834;51.100;6.886;2022-08-21T03:05:28;18.00;47.50
60965;DHT22;46834;51.100;6.886;2022-08-21T03:07:57;18.00;47.60
60965;DHT22;46834;51.100;6.886;2022-08-21T03:10:24;18.00;47.60
60965;DHT22;46834;51.100;6.886;2022-08-21T03:12:51;18.00;47.70
60965;DHT22;46834;51.100;6.886;2022-08-21T03:15:19;18.00;47.70
60965;DHT22;46834;51.100;6.886;2022-08-21T03:17:47;18.00;47.80
60965;DHT22;46834;51.100;6.886;2022-08-21T03:20:16;17.90;47.70
60965;DHT22;46834;51.100;6.886;2022-08-21T03:22:43;18.00;47.80
60965;DHT22;46834;51.100;6.886;2022-08-21T03:25:09;17.90;47.60
60965;DHT22;46834;51.100;6.886;2022-08-21T03:27:36;17.90;47.60
60965;DHT22;46834;51.100;6.886;2022-08-21T03:30:04;17.80;47.60
60965;DHT22;46834;51.100;6.886;2022-08-21T03:32:32;17.80;47.70
60965;DHT22;46834;51.100;6.886;2022-08-21T03:34:58;17.80;47.60
60965;DHT22;46834;51.100;6.886;2022-08-21T03:37:25;17.80;47.60
60965;DHT22;46834;51.100;6.886;2022-08-21T03:39:51;17.70;47.60
60965;DHT22;46834;51.100;6.886;2022-08-21T03:42:17;17.70;47.60
60965;DHT22;46834;51.100;6.886;2022-08-21T03:44:43;17.70;47.60
60965;DHT22;46834;51.100;6.886;2022-08-21T03:47:09;17.70;47.70
60965;DHT22;46834;51.100;6.886;2022-08-21T03:49:35;17.60;47.70
60965;DHT22;46834;51.100;6.886;2022-08-21T03:52:01;17.60;47.70
60965;DHT22;46834;51.100;6.886;2022-08-21T03:54:27;17.60;47.70
60965;DHT22;46834;51.100;6.886;2022-08-21T03:56:53;17.50;47.70
60965;DHT22;46834;51.100;6.886;2022-08-21T03:59:19;17.50;47.70
60965;DHT22;46834;51.100;6.886;2022-08-21T04:01:55;17.50;47.80
60965;DHT22;46834;51.100;6.886;2022-08-21T04:04:25;17.50;48.20
60965;DHT22;46834;51.100;6.886;2022-08-21T04:06:52;17.50;47.90
60965;DHT22;46834;51.100;6.886;2022-08-21T04:09:18;17.40;47.90
60965;DHT22;46834;51.100;6.886;2022-08-21T04:11:45;17.40;47.90
60965;DHT22;46834;51.100;6.886;2022-08-21T04:14:12;17.40;47.90
60965;DHT22;46834;51.100;6.886;2022-08-21T04:16:40;17.40;48.00
60965;DHT22;46834;51.100;6.886;2022-08-21T04:19:07;17.40;48.00
60965;DHT22;46834;51.100;6.886;2022-08-21T04:21:33;17.30;48.00
60965;DHT22;46834;51.100;6.886;2022-08-21T04:24:03;17.30;48.10
60965;DHT22;46834;51.100;6.886;2022-08-21T04:26:30;17.30;48.10
60965;DHT22;46834;51.100;6.886;2022-08-21T04:28:56;17.30;48.20
60965;DHT22;46834;51.100;6.886;2022-08-21T04:31:24;17.30;48.40
60965;DHT22;46834;51.100;6.886;2022-08-21T04:33:50;17.30;48.50
60965;DHT22;46834;51.100;6.886;2022-08-21T04:36:17;17.20;48.50
60965;DHT22;46834;51.100;6.886;2022-08-21T04:38:43;17.30;48.60
60965;DHT22;46834;51.100;6.886;2022-08-21T04:41:09;17.30;48.70
60965;DHT22;46834;51.100;6.886;2022-08-21T04:43:34;17.30;48.70
60965;DHT22;46834;51.100;6.886;2022-08-21T04:46:00;17.30;49.40
60965;DHT22;46834;51.100;6.886;2022-08-21T04:48:27;17.30;48.80
60965;DHT22;46834;51.100;6.886;2022-08-21T04:50:57;17.30;48.90
60965;DHT22;46834;51.100;6.886;2022-08-21T04:53:46;17.30;49.10
60965;DHT22;46834;51.100;6.886;2022-08-21T04:56:31;17.30;49.10
60965;DHT22;46834;51.100;6.886;2022-08-21T04:59:03;17.40;49.00
60965;DHT22;46834;51.100;6.886;2022-08-21T05:01:35;17.40;48.90
60965;DHT22;46834;51.100;6.886;2022-08-21T05:04:04;17.30;48.90
60965;DHT22;46834;51.100;6.886;2022-08-21T05:06:35;17.30;48.80
60965;DHT22;46834;51.100;6.886;2022-08-21T05:09:03;17.30;48.80
60965;DHT22;46834;51.100;6.886;2022-08-21T05:11:31;17.40;49.40
60965;DHT22;46834;51.100;6.886;2022-08-21T05:13:58;17.30;48.70
60965;DHT22;46834;51.100;6.886;2022-08-21T05:16:24;17.40;48.80
60965;DHT22;46834;51.100;6.886;2022-08-21T05:18:49;17.30;48.80
60965;DHT22;46834;51.100;6.886;2022-08-21T05:21:15;17.30;48.80
60965;DHT22;46834;51.100;6.886;2022-08-21T05:23:41;17.30;48.80
60965;DHT22;46834;51.100;6.886;2022-08-21T05:26:08;17.40;48.90
60965;DHT22;46834;51.100;6.886;2022-08-21T05:28:34;17.40;49.00
60965;DHT22;46834;51.100;6.886;2022-08-21T05:31:00;17.40;49.00
60965;DHT22;46834;51.100;6.886;2022-08-21T05:33:25;17.40;49.00
60965;DHT22;46834;51.100;6.886;2022-08-21T05:35:53;17.40;49.10
60965;DHT22;46834;51.100;6.886;2022-08-21T05:38:21;17.40;49.10
60965;DHT22;46834;51.100;6.886;2022-08-21T05:40:48;17.50;49.20
60965;DHT22;46834;51.100;6.886;2022-08-21T05:43:14;17.50;49.30
60965;DHT22;46834;51.100;6.886;2022-08-21T05:45:40;17.50;49.20
60965;DHT22;46834;51.100;6.886;2022-08-21T05:48:14;17.50;49.20
60965;DHT22;46834;51.100;6.886;2022-08-21T05:50:43;17.60;49.40
60965;DHT22;46834;51.100;6.886;2022-08-21T05:53:10;17.60;49.30
60965;DHT22;46834;51.100;6.886;2022-08-21T05:55:37;17.60;49.30
60965;DHT22;46834;51.100;6.886;2022-08-21T05:58:03;17.60;49.30
60965;DHT22;46834;51.100;6.886;2022-08-21T06:00:30;17.70;49.40
60965;DHT22;46834;51.100;6.886;2022-08-21T06:02:57;17.70;49.30
60965;DHT22;46834;51.100;6.886;2022-08-21T06:05:23;17.70;49.30
60965;DHT22;46834;51.100;6.886;2022-08-21T06:07:49;17.80;49.40
60965;DHT22;46834;51.100;6.886;2022-08-21T06:10:15;17.80;49.40
60965;DHT22;46834;51.100;6.886;2022-08-21T06:12:41;17.80;49.40
60965;DHT22;46834;51.100;6.886;2022-08-21T06:15:07;17.90;49.40
60965;DHT22;46834;51.100;6.886;2022-08-21T06:17:33;17.90;49.40
60965;DHT22;46834;51.100;6.886;2022-08-21T06:19:59;17.90;49.30
60965;DHT22;46834;51.100;6.886;2022-08-21T06:22:24;18.00;49.40
60965;DHT22;46834;51.100;6.886;2022-08-21T06:24:50;18.00;49.40
60965;DHT22;46834;51.100;6.886;2022-08-21T06:27:16;18.00;49.40
60965;DHT22;46834;51.100;6.886;2022-08-21T06:29:43;18.10;49.50
60965;DHT22;46834;51.100;6.886;2022-08-21T06:32:12;18.20;49.50
60965;DHT22;46834;51.100;6.886;2022-08-21T06:34:39;18.20;49.40
60965;DHT22;46834;51.100;6.886;2022-08-21T06:37:06;18.30;49.40
60965;DHT22;46834;51.100;6.886;2022-08-21T06:39:33;18.30;49.30
60965;DHT22;46834;51.100;6.886;2022-08-21T06:41:59;18.30;49.30
60965;DHT22;46834;51.100;6.886;2022-08-21T06:44:25;18.40;49.30
60965;DHT22;46834;51.100;6.886;2022-08-21T06:46:51;18.40;49.30
60965;DHT22;46834;51.100;6.886;2022-08-21T06:49:17;18.60;49.70
60965;DHT22;46834;51.100;6.886;2022-08-21T06:51:42;18.80;50.40
60965;DHT22;46834;51.100;6.886;2022-08-21T06:54:08;19.10;51.00
60965;DHT22;46834;51.100;6.886;2022-08-21T06:56:34;19.60;51.40
60965;DHT22;46834;51.100;6.886;2022-08-21T06:59:03;20.20;51.80
60965;DHT22;46834;51.100;6.886;2022-08-21T07:01:30;20.90;52.30
60965;DHT22;46834;51.100;6.886;2022-08-21T07:03:56;21.80;52.40
60965;DHT22;46834;51.100;6.886;2022-08-21T07:06:22;22.70;52.30
60965;DHT22;46834;51.100;6.886;2022-08-21T07:08:49;23.70;51.90
60965;DHT22;46834;51.100;6.886;2022-08-21T07:11:18;24.60;51.30
60965;DHT22;46834;51.100;6.886;2022-08-21T07:13:46;25.50;50.00
60965;DHT22;46834;51.100;6.886;2022-08-21T07:16:12;26.30;49.60
60965;DHT22;46834;51.100;6.886;2022-08-21T07:18:38;27.00;48.80
60965;DHT22;46834;51.100;6.886;2022-08-21T07:21:06;27.80;48.00
60965;DHT22;46834;51.100;6.886;2022-08-21T07:23:36;28.40;46.90
60965;DHT22;46834;51.100;6.886;2022-08-21T07:26:05;29.00;46.00
60965;DHT22;46834;51.100;6.886;2022-08-21T07:28:31;29.70;45.80
60965;DHT22;46834;51.100;6.886;2022-08-21T07:30:59;30.10;44.60
60965;DHT22;46834;51.100;6.886;2022-08-21T07:33:27;30.70;43.80
60965;DHT22;46834;51.100;6.886;2022-08-21T07:35:55;31.00;43.00
60965;DHT22;46834;51.100;6.886;2022-08-21T07:38:22;31.40;42.40
60965;DHT22;46834;51.100;6.886;2022-08-21T07:40:49;31.70;41.60
60965;DHT22;46834;51.100;6.886;2022-08-21T07:43:17;31.80;40.60
60965;DHT22;46834;51.100;6.886;2022-08-21T07:45:44;31.70;39.80
60965;DHT22;46834;51.100;6.886;2022-08-21T07:48:11;31.50;39.00
60965;DHT22;46834;51.100;6.886;2022-08-21T07:50:37;31.10;38.30
60965;DHT22;46834;51.100;6.886;2022-08-21T07:53:03;30.70;37.90
60965;DHT22;46834;51.100;6.886;2022-08-21T07:55:29;30.20;37.70
60965;DHT22;46834;51.100;6.886;2022-08-21T07:57:55;29.70;37.60
60965;DHT22;46834;51.100;6.886;2022-08-21T08:00:23;29.20;37.70
60965;DHT22;46834;51.100;6.886;2022-08-21T08:02:51;28.60;37.50
60965;DHT22;46834;51.100;6.886;2022-08-21T08:05:22;28.10;37.70
60965;DHT22;46834;51.100;6.886;2022-08-21T08:07:49;27.60;37.70
60965;DHT22;46834;51.100;6.886;2022-08-21T08:10:16;27.20;38.20
60965;DHT22;46834;51.100;6.886;2022-08-21T08:12:44;26.80;38.40
60965;DHT22;46834;51.100;6.886;2022-08-21T08:15:16;26.40;38.50
60965;DHT22;46834;51.100;6.886;2022-08-21T08:17:44;26.10;38.60
60965;DHT22;46834;51.100;6.886;2022-08-21T08:20:11;25.80;38.90
60965;DHT22;46834;51.100;6.886;2022-08-21T08:22:39;25.60;39.10
60965;DHT22;46834;51.100;6.886;2022-08-21T08:25:07;25.40;39.10
60965;DHT22;46834;51.100;6.886;2022-08-21T08:27:34;25.10;39.20
60965;DHT22;46834;51.100;6.886;2022-08-21T08:30:01;25.00;39.40
60965;DHT22;46834;51.100;6.886;2022-08-21T08:32:27;24.80;39.30
60965;DHT22;46834;51.100;6.886;2022-08-21T08:34:53;24.70;39.50
60965;DHT22;46834;51.100;6.886;2022-08-21T08:37:20;24.50;39.40
60965;DHT22;46834;51.100;6.886;2022-08-21T08:39:46;24.40;39.50
60965;DHT22;46834;51.100;6.886;2022-08-21T08:42:16;24.30;39.60
60965;DHT22;46834;51.100;6.886;2022-08-21T08:44:49;24.20;39.50
60965;DHT22;46834;51.100;6.886;2022-08-21T08:47:24;24.20;39.60
60965;DHT22;46834;51.100;6.886;2022-08-21T08:49:56;24.10;39.60
60965;DHT22;46834;51.100;6.886;2022-08-21T08:52:29;24.00;39.70
60965;DHT22;46834;51.100;6.886;2022-08-21T08:55:02;24.00;39.60
60965;DHT22;46834;51.100;6.886;2022-08-21T08:57:31;23.90;40.00
60965;DHT22;46834;51.100;6.886;2022-08-21T09:00:03;23.90;40.20
60965;DHT22;46834;51.100;6.886;2022-08-21T09:02:31;23.80;40.00
60965;DHT22;46834;51.100;6.886;2022-08-21T09:04:59;23.80;40.00
60965;DHT22;46834;51.100;6.886;2022-08-21T09:15:46;23.90;40.20
60965;DHT22;46834;51.100;6.886;2022-08-21T09:18:41;23.90;40.10
60965;DHT22;46834;51.100;6.886;2022-08-21T09:27:04;24.00;39.90
60965;DHT22;46834;51.100;6.886;2022-08-21T09:29:38;24.00;39.60
60965;DHT22;46834;51.100;6.886;2022-08-21T09:32:21;24.10;39.70
60965;DHT22;46834;51.100;6.886;2022-08-21T09:43:19;24.20;39.80
60965;DHT22;46834;51.100;6.886;2022-08-21T09:45:48;24.20;39.50
60965;DHT22;46834;51.100;6.886;2022-08-21T09:48:25;24.20;39.70
60965;DHT22;46834;51.100;6.886;2022-08-21T09:50:53;24.20;39.60
60965;DHT22;46834;51.100;6.886;2022-08-21T09:53:30;24.20;39.60
60965;DHT22;46834;51.100;6.886;2022-08-21T09:56:05;24.20;39.60
60965;DHT22;46834;51.100;6.886;2022-08-21T09:59:27;24.20;39.50
60965;DHT22;46834;51.100;6.886;2022-08-21T10:01:59;24.30;39.30
60965;DHT22;46834;51.100;6.886;2022-08-21T10:04:35;24.20;39.30
60965;DHT22;46834;51.100;6.886;2022-08-21T10:07:13;24.20;39.30
60965;DHT22;46834;51.100;6.886;2022-08-21T10:09:40;24.20;39.10
60965;DHT22;46834;51.100;6.886;2022-08-21T10:12:18;24.20;39.20
60965;DHT22;46834;51.100;6.886;2022-08-21T10:15:02;24.20;38.90
60965;DHT22;46834;51.100;6.886;2022-08-21T10:20:37;24.30;39.00
60965;DHT22;46834;51.100;6.886;2022-08-21T10:26:35;24.30;39.00
60965;DHT22;46834;51.100;6.886;2022-08-21T10:29:23;24.30;39.20
60965;DHT22;46834;51.100;6.886;2022-08-21T10:35:09;24.40;39.10
60965;DHT22;46834;51.100;6.886;2022-08-21T10:40:27;24.40;39.00
60965;DHT22;46834;51.100;6.886;2022-08-21T10:49:10;24.50;39.10
60965;DHT22;46834;51.100;6.886;2022-08-21T10:54:56;24.60;38.60
60965;DHT22;46834;51.100;6.886;2022-08-21T10:57:46;24.60;38.80
60965;DHT22;46834;51.100;6.886;2022-08-21T11:00:21;24.60;38.70
60965;DHT22;46834;51.100;6.886;2022-08-21T11:03:11;24.70;38.60
60965;DHT22;46834;51.100;6.886;2022-08-21T11:05:55;24.70;39.30
60965;DHT22;46834;51.100;6.886;2022-08-21T11:08:33;24.80;38.70
60965;DHT22;46834;51.100;6.886;2022-08-21T11:11:04;24.90;38.40
60965;DHT22;46834;51.100;6.886;2022-08-21T11:14:00;24.90;38.70
60965;DHT22;46834;51.100;6.886;2022-08-21T11:17:02;25.00;38.70
60965;DHT22;46834;51.100;6.886;2022-08-21T11:19:45;25.10;38.30
60965;DHT22;46834;51.100;6.886;2022-08-21T11:22:33;25.10;38.10
60965;DHT22;46834;51.100;6.886;2022-08-21T11:25:11;25.20;38.00
60965;DHT22;46834;51.100;6.886;2022-08-21T11:30:39;25.30;38.00
60965;DHT22;46834;51.100;6.886;2022-08-21T11:34:06;25.40;38.00
60965;DHT22;46834;51.100;6.886;2022-08-21T11:41:42;25.50;37.50
60965;DHT22;46834;51.100;6.886;2022-08-21T11:47:30;25.50;37.40
60965;DHT22;46834;51.100;6.886;2022-08-21T11:50:20;25.50;37.40
60965;DHT22;46834;51.100;6.886;2022-08-21T11:53:15;25.50;37.10
60965;DHT22;46834;51.100;6.886;2022-08-21T11:55:53;25.50;37.20
60965;DHT22;46834;51.100;6.886;2022-08-21T12:01:05;25.60;37.40
60965;DHT22;46834;51.100;6.886;2022-08-21T12:03:55;25.60;37.30
60965;DHT22;46834;51.100;6.886;2022-08-21T12:06:35;25.70;37.10
60965;DHT22;46834;51.100;6.886;2022-08-21T12:09:08;25.70;37.70
60965;DHT22;46834;51.100;6.886;2022-08-21T12:11:48;25.70;37.10
60965;DHT22;46834;51.100;6.886;2022-08-21T12:14:18;25.80;37.00
60965;DHT22;46834;51.100;6.886;2022-08-21T12:16:46;25.80;37.00
60965;DHT22;46834;51.100;6.886;2022-08-21T12:29:56;25.80;36.50
60965;DHT22;46834;51.100;6.886;2022-08-21T12:35:30;25.80;36.50
60965;DHT22;46834;51.100;6.886;2022-08-21T12:38:04;25.90;36.70
60965;DHT22;46834;51.100;6.886;2022-08-21T12:40:41;25.90;36.50
60965;DHT22;46834;51.100;6.886;2022-08-21T12:43:19;25.90;36.40
60965;DHT22;46834;51.100;6.886;2022-08-21T12:45:50;25.90;36.00
60965;DHT22;46834;51.100;6.886;2022-08-21T12:48:29;25.90;36.30
60965;DHT22;46834;51.100;6.886;2022-08-21T12:51:22;25.90;36.00
60965;DHT22;46834;51.100;6.886;2022-08-21T12:53:55;25.90;36.30
60965;DHT22;46834;51.100;6.886;2022-08-21T12:56:25;25.90;36.30
60965;DHT22;46834;51.100;6.886;2022-08-21T12:59:01;25.90;36.20
60965;DHT22;46834;51.100;6.886;2022-08-21T13:01:31;26.00;36.70
60965;DHT22;46834;51.100;6.886;2022-08-21T13:04:03;26.00;36.20
60965;DHT22;46834;51.100;6.886;2022-08-21T13:06:40;26.00;36.80
60965;DHT22;46834;51.100;6.886;2022-08-21T13:09:10;26.10;35.80
60965;DHT22;46834;51.100;6.886;2022-08-21T13:11:40;26.10;35.70
60965;DHT22;46834;51.100;6.886;2022-08-21T13:14:30;26.10;35.60
60965;DHT22;46834;51.100;6.886;2022-08-21T13:17:18;26.20;35.50
60965;DHT22;46834;51.100;6.886;2022-08-21T13:22:32;26.20;35.60
60965;DHT22;46834;51.100;6.886;2022-08-21T13:25:08;26.20;35.70
60965;DHT22;46834;51.100;6.886;2022-08-21T13:27:35;26.30;35.60
60965;DHT22;46834;51.100;6.886;2022-08-21T13:30:30;26.40;35.60
60965;DHT22;46834;51.100;6.886;2022-08-21T13:33:00;26.40;35.40
60965;DHT22;46834;51.100;6.886;2022-08-21T13:35:36;26.40;35.10
60965;DHT22;46834;51.100;6.886;2022-08-21T13:38:38;26.60;34.90
60965;DHT22;46834;51.100;6.886;2022-08-21T13:41:20;26.60;35.10
60965;DHT22;46834;51.100;6.886;2022-08-21T13:44:03;26.60;34.40
60965;DHT22;46834;51.100;6.886;2022-08-21T13:46:34;26.60;34.20
60965;DHT22;46834;51.100;6.886;2022-08-21T13:49:03;26.60;34.30
60965;DHT22;46834;51.100;6.886;2022-08-21T13:51:32;26.60;34.60
60965;DHT22;46834;51.100;6.886;2022-08-21T13:54:00;26.70;34.60
60965;DHT22;46834;51.100;6.886;2022-08-21T13:56:29;26.70;34.50
60965;DHT22;46834;51.100;6.886;2022-08-21T13:59:06;26.70;35.20
60965;DHT22;46834;51.100;6.886;2022-08-21T14:02:00;26.70;34.40
60965;DHT22;46834;51.100;6.886;2022-08-21T14:04:43;26.70;34.10
60965;DHT22;46834;51.100;6.886;2022-08-21T14:07:40;26.80;34.20
60965;DHT22;46834;51.100;6.886;2022-08-21T14:10:13;26.80;34.30
60965;DHT22;46834;51.100;6.886;2022-08-21T14:15:24;26.80;34.20
60965;DHT22;46834;51.100;6.886;2022-08-21T14:17:53;26.90;33.90
60965;DHT22;46834;51.100;6.886;2022-08-21T14:20:31;26.90;34.00
60965;DHT22;46834;51.100;6.886;2022-08-21T14:23:01;26.90;33.40
60965;DHT22;46834;51.100;6.886;2022-08-21T14:25:40;26.90;33.60
60965;DHT22;46834;51.100;6.886;2022-08-21T14:28:18;27.00;33.70
60965;DHT22;46834;51.100;6.886;2022-08-21T14:30:57;27.00;33.70
60965;DHT22;46834;51.100;6.886;2022-08-21T14:33:29;27.00;33.80
60965;DHT22;46834;51.100;6.886;2022-08-21T14:35:57;27.10;33.20
60965;DHT22;46834;51.100;6.886;2022-08-21T14:38:26;27.10;33.30
60965;DHT22;46834;51.100;6.886;2022-08-21T14:40:57;27.10;32.90
60965;DHT22;46834;51.100;6.886;2022-08-21T14:43:27;27.10;32.80
60965;DHT22;46834;51.100;6.886;2022-08-21T14:45:54;27.10;32.90
60965;DHT22;46834;51.100;6.886;2022-08-21T14:48:20;27.00;33.00
60965;DHT22;46834;51.100;6.886;2022-08-21T14:50:46;27.10;33.10
60965;DHT22;46834;51.100;6.886;2022-08-21T14:53:12;27.10;33.10
60965;DHT22;46834;51.100;6.886;2022-08-21T14:55:39;27.10;33.10
60965;DHT22;46834;51.100;6.886;2022-08-21T14:58:24;27.10;33.00
60965;DHT22;46834;51.100;6.886;2022-08-21T15:00:51;27.10;32.90
60965;DHT22;46834;51.100;6.886;2022-08-21T15:03:19;27.10;32.60
60965;DHT22;46834;51.100;6.886;2022-08-21T15:05:47;27.10;32.60
60965;DHT22;46834;51.100;6.886;2022-08-21T15:08:13;27.10;32.50
60965;DHT22;46834;51.100;6.886;2022-08-21T15:10:39;27.10;32.40
60965;DHT22;46834;51.100;6.886;2022-08-21T15:13:06;27.10;32.40
60965;DHT22;46834;51.100;6.886;2022-08-21T15:15:38;27.10;32.50
60965;DHT22;46834;51.100;6.886;2022-08-21T15:18:07;27.10;32.50
60965;DHT22;46834;51.100;6.886;2022-08-21T15:20:34;27.10;32.70
60965;DHT22;46834;51.100;6.886;2022-08-21T15:23:00;27.00;32.70
60965;DHT22;46834;51.100;6.886;2022-08-21T15:25:26;27.10;32.60
60965;DHT22;46834;51.100;6.886;2022-08-21T15:27:52;27.00;32.70
60965;DHT22;46834;51.100;6.886;2022-08-21T15:30:17;27.00;32.70
60965;DHT22;46834;51.100;6.886;2022-08-21T15:32:43;27.00;32.50
60965;DHT22;46834;51.100;6.886;2022-08-21T15:35:09;26.90;32.40
60965;DHT22;46834;51.100;6.886;2022-08-21T15:37:35;26.90;32.60
60965;DHT22;46834;51.100;6.886;2022-08-21T15:40:02;26.90;32.60
60965;DHT22;46834;51.100;6.886;2022-08-21T15:42:28;26.80;32.60
60965;DHT22;46834;51.100;6.886;2022-08-21T15:44:55;26.80;32.60
60965;DHT22;46834;51.100;6.886;2022-08-21T15:47:28;26.70;32.60
60965;DHT22;46834;51.100;6.886;2022-08-21T15:49:55;26.70;32.70
60965;DHT22;46834;51.100;6.886;2022-08-21T15:52:22;26.60;32.70
60965;DHT22;46834;51.100;6.886;2022-08-21T15:54:48;26.60;32.80
60965;DHT22;46834;51.100;6.886;2022-08-21T15:57:18;26.60;32.70
60965;DHT22;46834;51.100;6.886;2022-08-21T15:59:48;26.50;32.50
60965;DHT22;46834;51.100;6.886;2022-08-21T16:02:24;26.50;32.60
60965;DHT22;46834;51.100;6.886;2022-08-21T16:04:53;26.50;32.80
60965;DHT22;46834;51.100;6.886;2022-08-21T16:07:19;26.40;32.80
60965;DHT22;46834;51.100;6.886;2022-08-21T16:09:45;26.40;32.90
60965;DHT22;46834;51.100;6.886;2022-08-21T16:12:16;26.40;33.00
60965;DHT22;46834;51.100;6.886;2022-08-21T16:14:45;26.40;33.00
60965;DHT22;46834;51.100;6.886;2022-08-21T16:17:11;26.30;32.90
60965;DHT22;46834;51.100;6.886;2022-08-21T16:19:37;26.30;32.80
60965;DHT22;46834;51.100;6.886;2022-08-21T16:22:03;26.30;32.70
60965;DHT22;46834;51.100;6.886;2022-08-21T16:24:29;26.20;32.70
60965;DHT22;46834;51.100;6.886;2022-08-21T16:26:55;26.20;32.70
60965;DHT22;46834;51.100;6.886;2022-08-21T16:29:21;26.20;32.70
60965;DHT22;46834;51.100;6.886;2022-08-21T16:31:48;26.20;32.70
60965;DHT22;46834;51.100;6.886;2022-08-21T16:34:16;26.10;32.60
60965;DHT22;46834;51.100;6.886;2022-08-21T16:36:44;26.10;32.60
60965;DHT22;46834;51.100;6.886;2022-08-21T16:39:10;26.00;32.70
60965;DHT22;46834;51.100;6.886;2022-08-21T16:41:37;26.00;32.80
60965;DHT22;46834;51.100;6.886;2022-08-21T16:44:05;25.90;32.90
60965;DHT22;46834;51.100;6.886;2022-08-21T16:46:35;25.90;32.90
60965;DHT22;46834;51.100;6.886;2022-08-21T16:49:04;25.90;33.00
60965;DHT22;46834;51.100;6.886;2022-08-21T16:51:30;25.80;33.00
60965;DHT22;46834;51.100;6.886;2022-08-21T16:53:59;25.80;33.10
60965;DHT22;46834;51.100;6.886;2022-08-21T16:56:25;25.80;33.10
60965;DHT22;46834;51.100;6.886;2022-08-21T16:58:53;25.80;33.10
60965;DHT22;46834;51.100;6.886;2022-08-21T17:01:22;25.80;33.10
60965;DHT22;46834;51.100;6.886;2022-08-21T17:03:52;25.80;33.20
60965;DHT22;46834;51.100;6.886;2022-08-21T17:06:19;25.80;33.10